Time;durP1;ratioP1;P1;durP2;ratioP2;P2;SDS_P1;SDS_P2;PMS_P1;PMS_P2;Temp;Humidity;BMP_temperature;BMP_pressure;BME280_temperature;BME280_humidity;BME280_pressure;Samples;Min_cycle;Max_cycle;Signal;HPM_P1;HPM_P2
2023/03/14 00:01:51;;;;;;;3.03;2.10;;;7.50;99.90;;;;;;4980363;28;20185;-82
2023/03/14 00:04:17;;;;;;;2.57;2.30;;;7.50;99.90;;;;;;4997057;28;20197;-82
2023/03/14 00:06:42;;;;;;;5.73;2.43;;;7.50;99.90;;;;;;5013941;28;20741;-82
2023/03/14 00:09:08;;;;;;;5.80;3.10;;;7.40;99.90;;;;;;5014091;28;20677;-82
2023/03/14 00:11:34;;;;;;;3.90;2.90;;;7.40;99.90;;;;;;4992063;28;20198;-83
2023/03/14 00:14:02;;;;;;;5.37;2.90;;;7.40;99.90;;;;;;5001832;28;20203;-82
2023/03/14 00:16:28;;;;;;;4.10;2.30;;;7.40;99.90;;;;;;4994149;28;20249;-82
2023/03/14 00:18:54;;;;;;;5.30;2.03;;;7.40;99.90;;;;;;4994399;28;20544;-82
2023/03/14 00:21:19;;;;;;;4.37;2.80;;;7.30;99.90;;;;;;4994305;28;20272;-82
2023/03/14 00:23:45;;;;;;;3.07;1.90;;;7.30;99.90;;;;;;4994028;28;20208;-82
2023/03/14 00:26:14;;;;;;;4.13;2.37;;;7.30;99.90;;;;;;4992992;28;20190;-82
2023/03/14 00:28:41;;;;;;;3.20;2.43;;;7.30;99.90;;;;;;4994033;28;20178;-82
2023/03/14 00:31:09;;;;;;;4.97;3.20;;;7.30;99.90;;;;;;5012999;28;20267;-81
2023/03/14 00:33:35;;;;;;;5.70;3.53;;;7.30;99.90;;;;;;4979790;28;20190;-82
2023/03/14 00:36:08;;;;;;;3.70;2.30;;;7.30;99.90;;;;;;5013507;28;20173;-82
2023/03/14 00:38:35;;;;;;;3.47;2.27;;;7.30;99.90;;;;;;4996058;28;20186;-82
2023/03/14 00:41:08;;;;;;;9.23;3.23;;;7.30;99.90;;;;;;5013858;28;20285;-81
2023/03/14 00:43:34;;;;;;;7.23;3.13;;;7.30;99.90;;;;;;5013644;28;20217;-82
2023/03/14 00:46:00;;;;;;;8.60;2.90;;;7.30;99.90;;;;;;5013514;28;20601;-81
2023/03/14 00:48:27;;;;;;;3.80;3.00;;;7.30;99.90;;;;;;5015821;28;20173;-81
2023/03/14 00:50:54;;;;;;;4.87;2.73;;;7.30;99.90;;;;;;5038134;28;20149;-84
2023/03/14 00:53:20;;;;;;;4.20;3.10;;;7.30;99.90;;;;;;5038128;28;20233;-82
2023/03/14 00:55:46;;;;;;;16.37;3.70;;;7.40;99.90;;;;;;5038061;28;20268;-81
2023/03/14 00:58:14;;;;;;;6.07;2.93;;;7.40;99.90;;;;;;5014257;28;20173;-81
2023/03/14 01:00:41;;;;;;;5.83;2.60;;;7.30;99.90;;;;;;5014325;28;20181;-81
2023/03/14 01:03:08;;;;;;;3.40;2.33;;;7.30;99.90;;;;;;5019002;28;20197;-82
2023/03/14 01:05:34;;;;;;;2.97;1.60;;;7.30;99.90;;;;;;5037127;28;20181;-81
2023/03/14 01:08:00;;;;;;;3.80;2.27;;;7.40;99.90;;;;;;5020219;28;20169;-82
2023/03/14 01:10:26;;;;;;;3.23;2.60;;;7.40;99.90;;;;;;4994381;28;20197;-82
2023/03/14 01:12:51;;;;;;;3.23;2.20;;;7.40;99.90;;;;;;4994602;28;20197;-82
2023/03/14 01:15:17;;;;;;;5.33;3.00;;;7.40;99.90;;;;;;4993708;28;20312;-81
2023/03/14 01:17:43;;;;;;;4.37;2.57;;;7.50;99.90;;;;;;4994014;28;20229;-82
2023/03/14 01:20:11;;;;;;;3.43;1.93;;;7.50;99.90;;;;;;5011903;28;20189;-83
2023/03/14 01:22:41;;;;;;;3.40;2.20;;;7.50;99.90;;;;;;4980103;28;20298;-82
2023/03/14 01:25:08;;;;;;;4.67;2.20;;;7.50;99.90;;;;;;5010908;28;20567;-82
2023/03/14 01:27:34;;;;;;;2.60;2.17;;;7.50;99.90;;;;;;5013594;28;20594;-82
2023/03/14 01:30:00;;;;;;;2.23;1.87;;;7.50;99.90;;;;;;4996311;28;20631;-82
2023/03/14 01:32:26;;;;;;;4.77;2.80;;;7.50;99.90;;;;;;4993243;28;20240;-82
2023/03/14 01:34:52;;;;;;;4.50;2.37;;;7.50;99.90;;;;;;4994053;28;20186;-83
2023/03/14 01:37:18;;;;;;;6.00;2.50;;;7.50;99.90;;;;;;4994088;28;20738;-82
2023/03/14 01:39:43;;;;;;;17.23;11.10;;;7.50;99.90;;;;;;4993672;28;20182;-82
2023/03/14 01:42:09;;;;;;;5.20;2.70;;;7.50;99.90;;;;;;4993109;28;20201;-82
2023/03/14 01:45:01;;;;;;;5.07;3.40;;;7.60;99.90;;;;;;4992123;28;20593;-83
2023/03/14 01:47:27;;;;;;;5.07;2.03;;;7.70;99.90;;;;;;4997056;28;20225;-83
2023/03/14 01:50:01;;;;;;;6.50;2.60;;;7.70;99.90;;;;;;4997457;28;20193;-83
2023/03/14 01:52:36;;;;;;;5.33;2.70;;;7.60;99.90;;;;;;4997184;28;20240;-84
2023/03/14 01:55:20;;;;;;;3.90;2.53;;;7.60;99.90;;;;;;4996905;28;20191;-83
2023/03/14 01:57:58;;;;;;;2.97;2.13;;;7.70;99.90;;;;;;4996824;28;20182;-83
2023/03/14 02:00:24;;;;;;;1.63;1.50;;;7.80;99.90;;;;;;4979731;28;20548;-83
2023/03/14 02:03:05;;;;;;;2.67;2.10;;;7.80;99.80;;;;;;4995660;28;20213;-82
2023/03/14 02:05:34;;;;;;;5.17;2.00;;;7.90;99.60;;;;;;4996808;28;20232;-82
2023/03/14 02:08:02;;;;;;;3.30;2.10;;;7.80;99.90;;;;;;4996379;28;20631;-83
2023/03/14 02:10:33;;;;;;;3.83;2.23;;;7.80;99.70;;;;;;4995557;28;20182;-83
2023/03/14 02:13:01;;;;;;;5.87;2.37;;;7.80;99.90;;;;;;4996704;28;20188;-84
2023/03/14 02:15:27;;;;;;;14.77;2.90;;;7.70;99.90;;;;;;4996330;28;20520;-83
2023/03/14 02:17:53;;;;;;;2.87;1.90;;;7.70;99.90;;;;;;4996861;28;20316;-82
2023/03/14 02:20:28;;;;;;;4.03;2.53;;;7.70;99.90;;;;;;4994941;28;20208;-83
2023/03/14 02:22:54;;;;;;;4.23;2.50;;;7.60;99.90;;;;;;4978745;28;20296;-82
2023/03/14 02:25:45;;;;;;;4.87;1.80;;;7.70;99.90;;;;;;5010979;28;20288;-83
2023/03/14 02:28:12;;;;;;;4.23;2.20;;;7.70;99.90;;;;;;4998213;28;20180;-83
2023/03/14 02:30:38;;;;;;;3.83;2.20;;;7.80;99.90;;;;;;5015849;28;20646;-83
2023/03/14 02:33:11;;;;;;;2.67;1.83;;;7.70;99.90;;;;;;4998162;28;20268;-82
2023/03/14 02:35:50;;;;;;;7.37;2.03;;;7.70;99.90;;;;;;4998124;28;20181;-82
2023/03/14 02:38:41;;;;;;;3.80;2.30;;;7.70;99.90;;;;;;5015671;28;20256;-82
2023/03/14 02:41:07;;;;;;;5.10;1.90;;;7.70;99.90;;;;;;5014177;28;20176;-82
2023/03/14 02:43:33;;;;;;;4.13;2.40;;;7.70;99.90;;;;;;4998166;28;20736;-83
2023/03/14 02:46:00;;;;;;;3.20;2.10;;;7.70;99.90;;;;;;5015429;28;20642;-82
2023/03/14 02:48:35;;;;;;;2.93;2.00;;;7.70;99.90;;;;;;5015390;28;20180;-82
2023/03/14 02:51:02;;;;;;;5.77;3.00;;;7.70;99.90;;;;;;5015493;28;20263;-82
2023/03/14 02:53:31;;;;;;;3.80;2.10;;;7.70;99.90;;;;;;5015639;28;20604;-82
2023/03/14 02:55:57;;;;;;;2.30;1.80;;;7.70;99.90;;;;;;5015445;28;20656;-83
2023/03/14 02:58:23;;;;;;;2.03;1.70;;;7.70;99.90;;;;;;5014847;28;20174;-83
2023/03/14 03:00:49;;;;;;;2.73;1.40;;;7.80;99.90;;;;;;5015128;28;20704;-83
2023/03/14 03:03:14;;;;;;;4.20;1.80;;;7.80;99.90;;;;;;4997192;28;20208;-83
2023/03/14 03:05:40;;;;;;;4.40;1.90;;;7.80;99.90;;;;;;5015687;28;20181;-83
2023/03/14 03:08:06;;;;;;;3.80;1.93;;;7.80;99.90;;;;;;5014848;28;20173;-82
2023/03/14 03:10:32;;;;;;;4.07;1.90;;;7.80;99.90;;;;;;5015271;28;20212;-82
2023/03/14 03:12:58;;;;;;;2.60;1.83;;;7.80;99.90;;;;;;5014918;28;20180;-82
2023/03/14 03:15:25;;;;;;;3.33;1.70;;;7.90;99.90;;;;;;5014854;28;20177;-82
2023/03/14 03:17:50;;;;;;;3.63;2.10;;;8.00;99.90;;;;;;5015201;28;20225;-83
2023/03/14 03:20:16;;;;;;;6.30;2.10;;;7.90;99.90;;;;;;4997231;28;20234;-83
2023/03/14 03:22:42;;;;;;;5.97;1.97;;;8.00;99.90;;;;;;4997504;28;20267;-83
2023/03/14 03:25:08;;;;;;;2.97;1.73;;;8.00;99.90;;;;;;4996999;28;20197;-84
2023/03/14 03:27:35;;;;;;;2.27;1.50;;;8.00;99.90;;;;;;4997028;28;20539;-82
2023/03/14 03:30:02;;;;;;;3.27;1.80;;;8.00;99.90;;;;;;5011172;28;20189;-83
2023/03/14 03:32:28;;;;;;;3.07;2.17;;;8.20;99.90;;;;;;5000310;28;20681;-83
2023/03/14 03:34:53;;;;;;;2.67;1.80;;;8.00;99.90;;;;;;4993737;28;20220;-83
2023/03/14 03:37:19;;;;;;;2.93;1.50;;;8.00;99.50;;;;;;4994600;28;20184;-83
2023/03/14 03:39:45;;;;;;;4.40;2.00;;;8.00;99.60;;;;;;4994942;28;20186;-83
2023/03/14 03:42:10;;;;;;;4.37;2.03;;;8.00;99.80;;;;;;4977213;28;20186;-83
2023/03/14 03:44:37;;;;;;;5.03;2.07;;;8.00;99.80;;;;;;4995077;28;20189;-83
2023/03/14 03:47:03;;;;;;;3.67;2.20;;;8.00;99.40;;;;;;4994895;28;20167;-83
2023/03/14 03:49:30;;;;;;;4.10;2.33;;;7.90;99.20;;;;;;4977360;28;20670;-83
2023/03/14 03:51:55;;;;;;;5.40;2.60;;;7.90;99.30;;;;;;4977421;28;20188;-83
2023/03/14 03:54:21;;;;;;;7.87;3.50;;;7.80;99.90;;;;;;4976992;28;20260;-84
2023/03/14 03:56:47;;;;;;;6.97;2.93;;;7.80;99.90;;;;;;4996896;28;20642;-83
2023/03/14 03:59:12;;;;;;;5.57;2.50;;;7.60;99.90;;;;;;4992897;28;20273;-84
2023/03/14 04:01:38;;;;;;;10.77;2.63;;;7.50;99.90;;;;;;4977275;28;20186;-83
2023/03/14 04:04:04;;;;;;;3.07;2.33;;;7.40;99.90;;;;;;4977323;28;20220;-84
2023/03/14 04:06:30;;;;;;;3.90;2.60;;;7.30;99.90;;;;;;4961014;28;20184;-83
2023/03/14 04:08:56;;;;;;;2.80;2.07;;;7.20;99.90;;;;;;4977113;28;20260;-83
2023/03/14 04:11:21;;;;;;;4.97;2.60;;;7.10;99.90;;;;;;4976831;28;20182;-83
2023/03/14 04:13:47;;;;;;;5.97;2.70;;;7.10;99.90;;;;;;4976786;28;20205;-84
2023/03/14 04:16:24;;;;;;;4.77;2.40;;;7.00;99.90;;;;;;4994452;28;20230;-85
2023/03/14 04:18:50;;;;;;;3.20;1.93;;;7.00;99.90;;;;;;4994219;28;20182;-83
2023/03/14 04:21:16;;;;;;;3.40;1.87;;;6.90;99.90;;;;;;4994094;28;20189;-84
2023/03/14 04:23:41;;;;;;;2.40;2.03;;;6.80;99.90;;;;;;4976748;28;20592;-84
2023/03/14 04:26:07;;;;;;;5.23;2.30;;;6.80;99.90;;;;;;4961034;28;20186;-84
2023/03/14 04:28:35;;;;;;;3.87;2.43;;;6.80;99.90;;;;;;4960610;28;20252;-84
2023/03/14 04:31:10;;;;;;;5.07;2.63;;;6.80;99.90;;;;;;4979918;28;20565;-84
2023/03/14 04:33:37;;;;;;;7.03;3.37;;;6.80;99.90;;;;;;4983545;28;20271;-84
2023/03/14 04:36:04;;;;;;;3.30;2.47;;;6.70;99.90;;;;;;5013725;28;20188;-82
2023/03/14 04:38:30;;;;;;;7.47;1.73;;;6.80;99.90;;;;;;5013206;28;20173;-84
2023/03/14 04:40:56;;;;;;;6.40;2.80;;;6.90;99.90;;;;;;5013127;28;20169;-83
2023/03/14 04:43:21;;;;;;;8.47;3.60;;;7.00;99.90;;;;;;5013447;28;20200;-83
2023/03/14 04:45:47;;;;;;;10.00;3.70;;;7.10;99.90;;;;;;4996109;28;20182;-83
2023/03/14 04:48:13;;;;;;;10.30;3.27;;;7.10;99.90;;;;;;4995481;28;20585;-84
2023/03/14 04:50:39;;;;;;;4.40;2.13;;;7.10;99.90;;;;;;4975824;28;20192;-82
2023/03/14 04:53:05;;;;;;;12.03;2.93;;;7.30;99.90;;;;;;5007664;28;20193;-83
2023/03/14 04:55:32;;;;;;;2.50;2.30;;;7.30;99.80;;;;;;4992926;28;20280;-84
2023/03/14 04:57:59;;;;;;;2.97;1.97;;;7.40;99.60;;;;;;4990246;28;20189;-83
2023/03/14 05:00:24;;;;;;;5.50;2.50;;;7.50;98.90;;;;;;4986734;28;20208;-83
2023/03/14 05:02:50;;;;;;;9.73;2.77;;;7.50;98.80;;;;;;4981290;28;20716;-83
2023/03/14 05:05:16;;;;;;;3.43;2.70;;;7.50;98.90;;;;;;4993197;28;20189;-83
2023/03/14 05:07:42;;;;;;;5.77;3.00;;;7.40;98.90;;;;;;5009312;28;20208;-84
2023/03/14 05:10:08;;;;;;;4.73;2.60;;;7.40;99.20;;;;;;4990595;28;20219;-84
2023/03/14 05:12:34;;;;;;;6.00;2.13;;;7.40;99.40;;;;;;4976776;28;20201;-85
2023/03/14 05:15:00;;;;;;;4.40;1.97;;;6.10;98.10;;;;;;4993461;28;20185;-84
2023/03/14 05:17:25;;;;;;;3.10;2.33;;;7.40;98.40;;;;;;4988845;28;20822;-84
2023/03/14 05:19:51;;;;;;;10.03;3.67;;;7.40;98.50;;;;;;4988940;28;20198;-84
2023/03/14 05:22:17;;;;;;;10.43;3.53;;;7.40;98.80;;;;;;4991927;28;20185;-83
2023/03/14 05:24:42;;;;;;;9.80;3.30;;;7.40;99.00;;;;;;4987627;28;20205;-82
2023/03/14 05:27:08;;;;;;;7.33;3.10;;;7.40;98.80;;;;;;4988139;28;20189;-84
2023/03/14 05:29:34;;;;;;;11.37;3.80;;;7.40;98.50;;;;;;4988474;28;20197;-84
2023/03/14 05:32:00;;;;;;;6.40;3.47;;;7.40;98.30;;;;;;4997950;28;20659;-84
2023/03/14 05:34:26;;;;;;;9.63;3.40;;;7.40;97.90;;;;;;4983040;28;20252;-83
2023/03/14 05:36:51;;;;;;;8.87;3.83;;;7.40;98.10;;;;;;4981908;28;20225;-83
2023/03/14 05:39:18;;;;;;;7.83;3.87;;;7.40;99.00;;;;;;4985909;28;20196;-82
2023/03/14 05:41:43;;;;;;;5.07;2.47;;;7.50;98.10;;;;;;4990763;28;20662;-80
2023/03/14 05:44:09;;;;;;;4.10;2.20;;;7.90;99.90;;;;;;4985854;28;20221;-82
2023/03/14 05:46:35;;;;;;;6.87;2.90;;;8.00;98.60;;;;;;4992218;28;20197;-84
2023/03/14 05:49:01;;;;;;;4.30;2.27;;;8.00;95.90;;;;;;4992717;28;20352;-83
2023/03/14 05:51:26;;;;;;;4.10;1.83;;;8.10;94.60;;;;;;4975884;28;20209;-81
2023/03/14 05:53:52;;;;;;;7.47;3.20;;;8.10;94.80;;;;;;5009111;28;20547;-81
2023/03/14 05:56:18;;;;;;;4.57;2.10;;;8.10;94.00;;;;;;4977529;28;20582;-83
2023/03/14 05:58:44;;;;;;;5.50;2.07;;;8.10;94.20;;;;;;4977489;28;20532;-81
2023/03/14 06:01:09;;;;;;;4.93;2.37;;;8.10;93.90;;;;;;4991759;28;20191;-80
2023/03/14 06:03:35;;;;;;;2.87;1.60;;;8.10;93.60;;;;;;4990942;28;20213;-81
2023/03/14 06:06:01;;;;;;;2.17;1.87;;;8.20;92.80;;;;;;4991333;28;20193;-82
2023/03/14 06:08:27;;;;;;;2.47;1.50;;;8.20;92.10;;;;;;4977318;28;20195;-82
2023/03/14 06:10:53;;;;;;;7.20;2.43;;;8.30;93.00;;;;;;4995517;28;20240;-81
2023/03/14 06:13:20;;;;;;;3.97;2.37;;;8.40;92.50;;;;;;4994318;28;20190;-81
2023/03/14 06:15:46;;;;;;;3.07;1.87;;;8.40;91.90;;;;;;4951359;28;1142281;-81
2023/03/14 06:18:12;;;;;;;5.77;2.60;;;8.50;91.60;;;;;;5015022;28;20260;-81
2023/03/14 06:20:41;;;;;;;1.83;1.63;;;8.60;91.40;;;;;;4996619;28;20272;-81
2023/03/14 06:23:08;;;;;;;2.10;1.43;;;8.60;91.20;;;;;;4998371;28;20670;-81
2023/03/14 06:25:35;;;;;;;2.97;2.00;;;8.70;90.70;;;;;;4978135;28;20260;-81
2023/03/14 06:28:01;;;;;;;6.17;2.33;;;8.80;90.50;;;;;;5007771;28;20178;-81
2023/03/14 06:30:27;;;;;;;2.37;1.73;;;8.90;90.30;;;;;;4995014;28;20654;-82
2023/03/14 06:32:53;;;;;;;2.90;1.60;;;9.00;90.20;;;;;;4986649;28;20189;-81
2023/03/14 06:35:18;;;;;;;2.90;1.83;;;9.00;90.40;;;;;;4994888;28;20557;-81
2023/03/14 06:37:44;;;;;;;7.60;2.30;;;9.00;90.40;;;;;;4978712;28;20186;-81
2023/03/14 06:40:16;;;;;;;3.47;2.53;;;9.00;90.20;;;;;;4978903;28;20197;-82
2023/03/14 06:42:42;;;;;;;2.70;1.65;;;9.00;90.20;;;;;;4979728;28;20209;-81
2023/03/14 06:45:09;;;;;;;3.60;1.83;;;9.10;90.40;;;;;;4995129;28;20713;-81
2023/03/14 06:47:34;;;;;;;3.47;2.42;;;9.10;89.40;;;;;;5018404;28;20254;-82
2023/03/14 06:50:00;;;;;;;2.13;1.50;;;9.20;90.00;;;;;;5021014;28;20182;-80
2023/03/14 06:52:26;;;;;;;5.20;2.90;;;9.30;88.80;;;;;;5019988;28;20201;-79
2023/03/14 06:54:51;;;;;;;3.60;2.00;;;9.40;90.20;;;;;;5017200;28;20243;-81
2023/03/14 06:57:17;;;;;;;2.90;1.70;;;9.40;89.40;;;;;;5006115;28;20220;-81
2023/03/14 06:59:42;;;;;;;2.35;1.75;;;9.50;87.70;;;;;;4999339;28;20185;-79
2023/03/14 07:02:11;;;;;;;5.72;2.42;;;9.60;87.60;;;;;;5038415;28;20189;-79
2023/03/14 07:04:37;;;;;;;2.65;1.60;;;9.70;88.30;;;;;;5019096;28;20254;-81
2023/03/14 07:07:03;;;;;;;4.10;2.65;;;9.70;86.40;;;;;;5019510;28;20182;-79
2023/03/14 07:09:28;;;;;;;3.35;2.00;;;9.70;87.00;;;;;;4996374;28;20177;-80
2023/03/14 07:11:54;;;;;;;9.73;3.07;;;9.70;87.00;;;;;;4997669;28;20194;-81
2023/03/14 07:14:20;;;;;;;6.70;3.13;;;9.80;88.20;;;;;;5015219;28;20272;-83
2023/03/14 07:16:45;;;;;;;4.93;2.30;;;9.90;87.80;;;;;;4998497;28;20315;-82
2023/03/14 07:19:11;;;;;;;4.72;2.50;;;10.00;86.40;;;;;;5015613;28;20661;-82
2023/03/14 07:21:37;;;;;;;3.83;2.60;;;10.20;85.60;;;;;;5014917;28;20173;-82
2023/03/14 07:24:03;;;;;;;2.72;1.90;;;10.40;85.80;;;;;;4997892;28;20243;-82
2023/03/14 07:26:29;;;;;;;3.33;2.20;;;10.60;84.60;;;;;;4997742;28;20181;-82
2023/03/14 07:28:54;;;;;;;9.07;3.25;;;10.80;82.40;;;;;;5014911;28;20185;-82
2023/03/14 07:31:20;;;;;;;5.63;2.45;;;10.90;83.30;;;;;;4997855;28;20204;-83
2023/03/14 07:33:47;;;;;;;2.35;1.33;;;11.10;83.70;;;;;;5014909;28;20528;-81
2023/03/14 07:36:13;;;;;;;2.15;1.20;;;11.20;80.80;;;;;;5015038;28;20217;-83
2023/03/14 07:38:38;;;;;;;3.55;1.70;;;11.30;80.80;;;;;;4997256;28;20213;-81
2023/03/14 07:41:06;;;;;;;4.22;2.03;;;11.40;81.90;;;;;;4997339;28;20220;-82
2023/03/14 07:43:32;;;;;;;4.47;2.33;;;11.50;81.70;;;;;;4996167;28;20291;-81
2023/03/14 07:45:58;;;;;;;4.88;2.33;;;11.60;81.80;;;;;;5014109;28;20173;-81
2023/03/14 07:48:26;;;;;;;7.45;1.77;;;11.60;82.30;;;;;;4996991;28;20272;-80
2023/03/14 07:50:53;;;;;;;4.28;1.67;;;11.70;80.40;;;;;;5014235;28;20212;-81
2023/03/14 07:53:19;;;;;;;3.70;2.00;;;11.60;80.20;;;;;;4996720;28;20200;-81
2023/03/14 07:55:45;;;;;;;2.38;1.80;;;11.60;79.40;;;;;;5013833;28;20542;-80
2023/03/14 07:58:11;;;;;;;3.05;2.05;;;11.50;80.30;;;;;;5014014;28;20185;-81
2023/03/14 08:00:37;;;;;;;4.22;2.20;;;11.60;80.20;;;;;;4996634;28;20707;-81
2023/03/14 08:03:03;;;;;;;3.33;1.90;;;11.60;80.90;;;;;;4980033;28;20209;-81
2023/03/14 08:05:29;;;;;;;7.53;2.00;;;11.70;81.00;;;;;;5014193;28;20531;-81
2023/03/14 08:07:54;;;;;;;10.98;2.38;;;11.80;80.10;;;;;;4996228;28;20200;-81
2023/03/14 08:10:23;;;;;;;5.20;1.83;;;11.90;80.50;;;;;;5014019;28;20181;-81
2023/03/14 08:12:50;;;;;;;1.98;1.27;;;12.00;79.10;;;;;;4996039;28;20193;-80
2023/03/14 08:15:16;;;;;;;6.90;1.83;;;12.10;79.20;;;;;;5014123;28;20304;-81
2023/03/14 08:17:42;;;;;;;4.78;1.92;;;12.10;80.00;;;;;;5013244;28;20265;-83
2023/03/14 08:20:10;;;;;;;5.72;1.65;;;12.20;81.30;;;;;;5013968;28;20638;-81
2023/03/14 08:22:36;;;;;;;2.42;1.45;;;12.30;81.00;;;;;;4980799;28;20209;-81
2023/03/14 08:25:02;;;;;;;1.92;1.50;;;12.30;81.10;;;;;;5013489;28;20244;-81
2023/03/14 08:27:28;;;;;;;10.35;2.38;;;12.40;81.30;;;;;;4996101;28;20654;-81
2023/03/14 08:29:53;;;;;;;3.38;1.75;;;12.50;79.90;;;;;;5013447;28;20177;-81
2023/03/14 08:32:20;;;;;;;3.03;2.30;;;12.50;81.20;;;;;;4995827;28;20534;-81
2023/03/14 08:34:46;;;;;;;3.78;1.48;;;12.50;80.40;;;;;;5013459;28;20220;-82
2023/03/14 08:37:11;;;;;;;5.40;2.28;;;12.50;80.60;;;;;;5012776;28;20638;-81
2023/03/14 08:39:37;;;;;;;3.22;1.80;;;12.50;81.30;;;;;;5013514;28;20187;-81
2023/03/14 08:42:03;;;;;;;4.63;2.08;;;12.60;80.30;;;;;;5013378;28;20661;-81
2023/03/14 08:44:28;;;;;;;2.88;1.63;;;12.80;80.30;;;;;;4995758;28;20213;-82
2023/03/14 08:46:54;;;;;;;5.18;2.80;;;13.00;79.70;;;;;;5013704;28;20192;-81
2023/03/14 08:49:20;;;;;;;1.67;1.40;;;13.10;79.60;;;;;;5013562;28;20212;-81
2023/03/14 08:51:46;;;;;;;4.47;1.92;;;13.20;79.10;;;;;;4996131;28;20276;-81
2023/03/14 08:54:11;;;;;;;4.47;1.58;;;13.20;79.30;;;;;;4979610;28;20185;-81
2023/03/14 08:56:37;;;;;;;3.78;1.90;;;13.20;78.30;;;;;;5017764;28;20177;-81
2023/03/14 08:59:03;;;;;;;4.13;1.42;;;13.20;79.00;;;;;;5013069;28;20181;-81
2023/03/14 09:01:29;;;;;;;3.65;1.77;;;13.20;79.10;;;;;;4995967;28;20186;-82
2023/03/14 09:03:55;;;;;;;3.33;2.13;;;13.10;78.50;;;;;;5012744;28;20628;-82
2023/03/14 09:06:21;;;;;;;2.80;1.75;;;13.10;78.70;;;;;;5013392;28;20177;-81
2023/03/14 09:08:47;;;;;;;7.03;2.50;;;13.10;77.90;;;;;;5013281;28;20280;-81
2023/03/14 09:11:14;;;;;;;1.92;1.42;;;13.20;78.30;;;;;;4995423;28;20642;-81
2023/03/14 09:13:40;;;;;;;3.95;1.50;;;13.40;77.50;;;;;;5013131;28;20177;-81
2023/03/14 09:16:07;;;;;;;2.70;1.55;;;13.50;77.60;;;;;;5012678;28;20731;-81
2023/03/14 09:18:32;;;;;;;2.97;1.55;;;13.70;77.50;;;;;;5013215;28;20192;-81
2023/03/14 09:20:58;;;;;;;3.65;1.67;;;13.90;76.80;;;;;;5013004;28;20177;-82
2023/03/14 09:23:24;;;;;;;2.70;1.48;;;13.90;75.70;;;;;;4995898;28;20280;-81
2023/03/14 09:25:55;;;;;;;6.55;1.83;;;14.00;74.50;;;;;;5013241;28;20173;-80
2023/03/14 09:28:21;;;;;;;1.38;1.13;;;14.00;74.40;;;;;;5012948;28;20183;-81
2023/03/14 09:30:47;;;;;;;3.38;1.63;;;14.10;74.00;;;;;;5013063;28;20177;-80
2023/03/14 09:33:12;;;;;;;2.67;1.60;;;14.10;74.40;;;;;;4995418;28;20196;-81
2023/03/14 09:35:38;;;;;;;1.70;1.50;;;14.10;75.80;;;;;;4995279;28;20181;-81
2023/03/14 09:38:05;;;;;;;4.07;2.10;;;14.20;73.60;;;;;;4995214;28;20184;-81
2023/03/14 09:40:35;;;;;;;2.45;1.95;;;14.20;73.40;;;;;;5012844;28;20189;-81
2023/03/14 09:43:00;;;;;;;3.08;1.40;;;14.20;73.30;;;;;;5012814;28;20295;-81
2023/03/14 09:45:33;;;;;;;4.10;1.95;;;14.40;73.80;;;;;;4996008;28;20255;-81
2023/03/14 09:48:01;;;;;;;3.75;2.40;;;14.40;73.30;;;;;;5012782;28;20178;-82
2023/03/14 09:50:39;;;;;;;5.65;1.83;;;14.50;73.50;;;;;;5012933;28;20642;-81
2023/03/14 09:53:12;;;;;;;4.10;2.03;;;14.70;72.70;;;;;;5012486;28;20626;-82
2023/03/14 09:55:39;;;;;;;2.67;1.92;;;14.70;71.70;;;;;;4995125;28;20173;-81
2023/03/14 09:58:11;;;;;;;3.63;2.15;;;14.70;72.10;;;;;;5012688;28;20183;-81
2023/03/14 10:00:36;;;;;;;2.05;1.30;;;14.70;72.00;;;;;;5002144;28;20182;-82
2023/03/14 10:03:11;;;;;;;3.55;2.08;;;14.70;72.00;;;;;;5012690;28;20299;-81
2023/03/14 10:05:38;;;;;;;1.95;1.20;;;14.80;72.90;;;;;;4993050;28;20174;-81
2023/03/14 10:08:04;;;;;;;2.90;1.60;;;14.90;72.40;;;;;;4978776;28;20186;-83
2023/03/14 10:10:30;;;;;;;4.57;1.95;;;14.90;72.90;;;;;;4998890;28;20189;-81
2023/03/14 10:13:18;;;;;;;1.95;1.55;;;15.00;71.90;;;;;;5016261;28;20181;-82
2023/03/14 10:16:07;;;;;;;3.42;1.90;;;15.10;71.70;;;;;;5016543;28;20177;-81
2023/03/14 10:18:34;;;;;;;3.45;1.95;;;15.20;71.50;;;;;;5016334;28;20646;-82
2023/03/14 10:21:06;;;;;;;3.08;1.80;;;15.30;71.80;;;;;;5016079;28;20193;-82
2023/03/14 10:23:34;;;;;;;2.30;1.17;;;15.30;70.60;;;;;;5015857;28;20209;-82
2023/03/14 10:26:17;;;;;;;3.47;2.38;;;15.30;71.00;;;;;;5015533;28;20588;-83
2023/03/14 10:28:51;;;;;;;2.83;1.88;;;15.40;71.40;;;;;;5010303;28;20189;-81
2023/03/14 10:31:17;;;;;;;7.40;1.77;;;15.40;70.40;;;;;;4999259;28;20181;-82
2023/03/14 10:34:02;;;;;;;3.05;1.75;;;15.50;71.70;;;;;;5008907;28;20192;-82
2023/03/14 10:36:30;;;;;;;2.40;1.48;;;15.60;70.80;;;;;;5016366;28;20217;-82
2023/03/14 10:39:22;;;;;;;3.17;1.52;;;15.70;70.10;;;;;;5007917;28;20252;-82
2023/03/14 10:42:12;;;;;;;7.40;1.60;;;15.80;70.30;;;;;;4978683;28;20186;-82
2023/03/14 10:44:39;;;;;;;4.20;1.58;;;16.00;70.50;;;;;;4996006;28;20209;-83
2023/03/14 10:47:05;;;;;;;5.32;2.00;;;16.00;70.90;;;;;;5002079;28;20697;-82
2023/03/14 10:49:31;;;;;;;4.72;1.90;;;16.10;69.40;;;;;;5009963;28;20193;-82
2023/03/14 10:52:22;;;;;;;4.28;1.17;;;16.00;69.10;;;;;;4997778;28;20188;-82
2023/03/14 10:54:54;;;;;;;3.05;1.67;;;15.90;69.00;;;;;;5000578;28;20665;-82
2023/03/14 10:57:20;;;;;;;7.45;2.22;;;15.90;70.80;;;;;;4995667;28;20181;-82
2023/03/14 10:59:46;;;;;;;8.50;3.35;;;16.00;70.80;;;;;;5009383;28;20784;-81
2023/03/14 11:02:25;;;;;;;3.10;2.00;;;15.80;71.10;;;;;;5014985;28;20272;-83
2023/03/14 11:05:09;;;;;;;6.55;1.83;;;15.80;71.30;;;;;;4982801;28;20202;-82
2023/03/14 11:07:42;;;;;;;3.92;1.70;;;15.60;69.70;;;;;;4978123;28;20356;-82
2023/03/14 11:10:32;;;;;;;3.03;1.63;;;15.50;71.10;;;;;;4994287;28;20221;-82
2023/03/14 11:13:36;;;;;;;3.53;1.70;;;15.60;71.10;;;;;;4995485;28;20186;-82
2023/03/14 11:16:26;;;;;;;3.78;2.17;;;15.90;71.10;;;;;;4998306;28;20219;-82
2023/03/14 11:19:13;;;;;;;2.25;1.73;;;16.00;68.50;;;;;;5014011;28;20165;-82
2023/03/14 11:21:51;;;;;;;5.45;1.52;;;16.10;67.90;;;;;;4997727;28;20280;-82
2023/03/14 11:24:38;;;;;;;6.15;2.10;;;15.90;67.10;;;;;;5014670;28;20201;-82
2023/03/14 11:27:18;;;;;;;2.78;2.00;;;15.80;67.50;;;;;;5015107;28;20226;-82
2023/03/14 11:29:54;;;;;;;3.70;1.45;;;15.70;68.10;;;;;;5014942;28;20510;-82
2023/03/14 11:32:45;;;;;;;2.90;1.27;;;15.80;68.20;;;;;;4995544;28;20185;-82
2023/03/14 11:35:28;;;;;;;2.72;1.55;;;15.70;68.50;;;;;;4972674;28;20264;-82
2023/03/14 11:38:28;;;;;;;2.85;2.05;;;15.80;68.50;;;;;;5012868;28;20201;-83
2023/03/14 11:40:57;;;;;;;3.60;1.50;;;15.90;67.90;;;;;;4996854;28;20182;-82
2023/03/14 11:43:45;;;;;;;3.00;1.90;;;16.00;68.20;;;;;;4999457;28;20220;-83
2023/03/14 11:46:15;;;;;;;2.75;2.05;;;16.10;69.20;;;;;;5012312;28;20177;-82
2023/03/14 11:49:00;;;;;;;2.80;1.77;;;16.20;69.20;;;;;;5014892;28;20177;-82
2023/03/14 11:51:38;;;;;;;2.60;1.48;;;16.30;68.10;;;;;;5014317;28;20207;-82
2023/03/14 11:54:20;;;;;;;2.58;1.77;;;16.20;67.40;;;;;;5014543;28;20180;-82
2023/03/14 11:57:02;;;;;;;4.10;1.40;;;16.10;67.50;;;;;;5014191;28;20177;-82
2023/03/14 11:59:32;;;;;;;3.25;1.98;;;16.00;67.90;;;;;;5016972;28;20169;-82
2023/03/14 12:02:00;;;;;;;4.40;2.17;;;15.90;68.60;;;;;;5014771;28;20174;-82
2023/03/14 12:04:41;;;;;;;2.00;1.38;;;15.80;68.30;;;;;;5012660;28;20271;-82
2023/03/14 12:07:35;;;;;;;3.42;1.38;;;15.70;69.30;;;;;;5014136;28;20234;-82
2023/03/14 12:10:02;;;;;;;2.70;1.63;;;15.60;68.60;;;;;;5006350;28;20201;-82
2023/03/14 12:12:30;;;;;;;4.25;2.00;;;15.70;68.90;;;;;;5013778;28;20308;-82
2023/03/14 12:14:59;;;;;;;3.80;1.60;;;15.70;68.90;;;;;;5014037;28;20251;-82
2023/03/14 12:17:40;;;;;;;3.55;1.75;;;15.80;69.40;;;;;;5013879;28;20236;-82
2023/03/14 12:20:21;;;;;;;2.42;2.15;;;16.00;69.00;;;;;;5014088;28;20169;-82
2023/03/14 12:23:16;;;;;;;2.50;1.58;;;16.00;67.70;;;;;;5012129;28;20212;-82
2023/03/14 12:25:41;;;;;;;3.13;1.45;;;16.00;67.80;;;;;;4998600;28;20189;-82
2023/03/14 12:28:18;;;;;;;3.63;1.60;;;16.10;67.60;;;;;;5018550;28;20170;-82
2023/03/14 12:30:44;;;;;;;1.92;1.80;;;16.00;68.10;;;;;;5016281;28;20196;-81
2023/03/14 12:33:10;;;;;;;4.13;1.98;;;16.00;68.90;;;;;;5027388;28;20200;-82
2023/03/14 12:35:36;;;;;;;2.10;1.58;;;16.20;68.70;;;;;;5023979;28;20188;-82
2023/03/14 12:38:09;;;;;;;3.10;1.55;;;16.30;68.20;;;;;;5025028;28;20211;-83
2023/03/14 12:40:47;;;;;;;3.92;1.70;;;16.30;68.50;;;;;;5035541;28;20181;-82
2023/03/14 12:43:34;;;;;;;1.65;1.55;;;16.50;67.80;;;;;;5031923;28;20259;-80
2023/03/14 12:46:19;;;;;;;1.90;1.73;;;16.40;67.70;;;;;;4998691;28;20639;-81
2023/03/14 12:49:04;;;;;;;2.35;1.60;;;16.30;68.50;;;;;;4994283;28;20213;-81
2023/03/14 12:51:39;;;;;;;4.70;1.80;;;16.40;67.10;;;;;;4993813;28;20224;-81
2023/03/14 12:54:10;;;;;;;3.33;1.75;;;16.30;67.60;;;;;;4993895;28;20173;-81
2023/03/14 12:57:10;;;;;;;4.80;2.25;;;16.10;67.70;;;;;;5003465;28;20216;-81
2023/03/14 12:59:45;;;;;;;4.35;1.90;;;16.20;68.90;;;;;;4976165;28;20265;-81
2023/03/14 13:02:29;;;;;;;1.88;1.50;;;16.10;68.20;;;;;;4993681;28;20178;-81
2023/03/14 13:05:14;;;;;;;2.05;1.45;;;16.00;68.60;;;;;;4993755;28;20272;-81